Etusivu
METAR-TAF:

METAR-TAF

Lentoasemat :

Vidsel, Ruotsi

Leveyspiiri: 65-52N, Pituuspiiri: 020-08E, korkeus merenpinnasta: 180 m

Tämänhetkinen sää

Tämä raportti tehtiin 27 minuuttia sitten, kello 23.20 UTC
Tuuli 5 kn idästä
Lämpötila -10°C
Kosteus 92%
Ilmanpaine 1002 hPa
Näkyvyys: 2400 m
heikkoa lumisadetta

METAR: ESPE 172320Z AUTO 09005KT 2400 -SN VV030 M10/M11 Q1002

Aika: 00:47 (23:47 UTC)

Sääennuste

Tämä raportti tehtiin 12 tuntia ja 17 minuuttia sitten, kello 11.30 UTC
Ennuste voimassa 17. päivästä klo 12 UTC - 17. päivään klo 15 UTC
Tuuli 10 kn kaakosta
Näkyvyys: 7000 m
Hajanaisia pilviä 1400 ft:n korkeudessa
Hajonneita pilviä 2500 ft:n korkeudessa
heikkoa lumisadetta
Ajoittain
17. päivästä klo 12 UTC - 17. päivään klo 15 UTC
Näkyvyys: 2000 m
1400 ft:n korkeudessa
lumisadetta

TAF: ESPE 171130Z 1712/1715 13010KT 7000 -SN SCT014 BKN025 TEMPO 1712/1715 2000 SN VV014 RMK MIL

Säähavainnot ja -ennusteet yli 4000 lentoasemalta (METAR- ja TAF-raportit).

Käytössä olevat sääasemat on merkitty karttaan keltaisilla ja punaisilla pisteillä.

Aseta hiiri pisteen päälle nähdäksesi sääaseman nimen.

Klikkaa sitten nähdäksesi säähavainnot ja -ennusteet.

Kartan vaihtaminen: klikkaa mustalla rastilla varustettuja vihreitä pisteitä, niin voit zoomata sisään; viivalla varustettua vihreää pistettä, niin voit zoomata ulos tai vihreitä nuolia, niin pääset viereisille kartoille.


METAR-TAF: